sensor_id;sensor_type;location;lat;lon;timestamp;P1;durP1;ratioP1;P2;durP2;ratioP2
5900;SDS011;2976;49.764;9.796;2024-02-26T00:01:00;4.10;;;2.60;;
5900;SDS011;2976;49.764;9.796;2024-02-26T00:03:25;4.03;;;2.47;;
5900;SDS011;2976;49.764;9.796;2024-02-26T00:05:51;7.10;;;2.90;;
5900;SDS011;2976;49.764;9.796;2024-02-26T00:08:16;3.80;;;2.70;;
5900;SDS011;2976;49.764;9.796;2024-02-26T00:10:42;7.30;;;2.87;;
5900;SDS011;2976;49.764;9.796;2024-02-26T00:13:07;5.80;;;2.40;;
5900;SDS011;2976;49.764;9.796;2024-02-26T00:15:33;3.50;;;3.10;;
5900;SDS011;2976;49.764;9.796;2024-02-26T00:18:00;7.00;;;3.70;;
5900;SDS011;2976;49.764;9.796;2024-02-26T00:20:26;5.67;;;2.90;;
5900;SDS011;2976;49.764;9.796;2024-02-26T00:22:51;5.30;;;3.03;;
5900;SDS011;2976;49.764;9.796;2024-02-26T00:25:17;1.97;;;1.77;;
5900;SDS011;2976;49.764;9.796;2024-02-26T00:27:43;4.23;;;2.93;;
5900;SDS011;2976;49.764;9.796;2024-02-26T00:30:09;3.13;;;2.10;;
5900;SDS011;2976;49.764;9.796;2024-02-26T00:32:35;5.20;;;3.23;;
5900;SDS011;2976;49.764;9.796;2024-02-26T00:35:00;3.80;;;2.50;;
5900;SDS011;2976;49.764;9.796;2024-02-26T00:37:26;3.87;;;2.47;;
5900;SDS011;2976;49.764;9.796;2024-02-26T00:39:52;4.80;;;3.10;;
5900;SDS011;2976;49.764;9.796;2024-02-26T00:42:19;3.80;;;2.60;;
5900;SDS011;2976;49.764;9.796;2024-02-26T00:44:44;5.27;;;3.07;;
5900;SDS011;2976;49.764;9.796;2024-02-26T00:47:10;6.93;;;3.13;;
5900;SDS011;2976;49.764;9.796;2024-02-26T00:49:36;8.80;;;3.67;;
5900;SDS011;2976;49.764;9.796;2024-02-26T00:52:02;4.73;;;3.00;;
5900;SDS011;2976;49.764;9.796;2024-02-26T00:54:28;4.73;;;3.27;;
5900;SDS011;2976;49.764;9.796;2024-02-26T00:56:53;4.80;;;3.07;;
5900;SDS011;2976;49.764;9.796;2024-02-26T00:59:19;5.90;;;3.40;;
5900;SDS011;2976;49.764;9.796;2024-02-26T01:01:44;4.20;;;3.00;;
5900;SDS011;2976;49.764;9.796;2024-02-26T01:04:10;3.23;;;2.40;;
5900;SDS011;2976;49.764;9.796;2024-02-26T01:06:36;5.03;;;2.97;;
5900;SDS011;2976;49.764;9.796;2024-02-26T01:09:02;4.60;;;3.73;;
5900;SDS011;2976;49.764;9.796;2024-02-26T01:11:28;10.10;;;3.63;;
5900;SDS011;2976;49.764;9.796;2024-02-26T01:13:53;3.70;;;2.70;;
5900;SDS011;2976;49.764;9.796;2024-02-26T01:16:22;5.90;;;3.87;;
5900;SDS011;2976;49.764;9.796;2024-02-26T01:18:48;4.10;;;2.83;;
5900;SDS011;2976;49.764;9.796;2024-02-26T01:21:13;4.57;;;2.90;;
5900;SDS011;2976;49.764;9.796;2024-02-26T01:23:39;3.80;;;2.90;;
5900;SDS011;2976;49.764;9.796;2024-02-26T01:26:05;8.07;;;3.60;;
5900;SDS011;2976;49.764;9.796;2024-02-26T01:28:30;7.40;;;3.13;;
5900;SDS011;2976;49.764;9.796;2024-02-26T01:30:56;2.97;;;2.63;;
5900;SDS011;2976;49.764;9.796;2024-02-26T01:33:21;4.80;;;3.37;;
5900;SDS011;2976;49.764;9.796;2024-02-26T01:35:47;6.13;;;3.60;;
5900;SDS011;2976;49.764;9.796;2024-02-26T01:38:13;7.00;;;3.43;;
5900;SDS011;2976;49.764;9.796;2024-02-26T01:40:38;4.93;;;3.33;;
5900;SDS011;2976;49.764;9.796;2024-02-26T01:43:04;5.83;;;2.90;;
5900;SDS011;2976;49.764;9.796;2024-02-26T01:45:29;9.13;;;3.33;;
5900;SDS011;2976;49.764;9.796;2024-02-26T01:47:55;8.03;;;5.73;;
5900;SDS011;2976;49.764;9.796;2024-02-26T01:50:21;4.80;;;2.87;;
5900;SDS011;2976;49.764;9.796;2024-02-26T01:52:47;5.70;;;2.77;;
5900;SDS011;2976;49.764;9.796;2024-02-26T01:55:15;6.10;;;3.63;;
5900;SDS011;2976;49.764;9.796;2024-02-26T01:57:43;7.67;;;3.13;;
5900;SDS011;2976;49.764;9.796;2024-02-26T02:00:10;7.40;;;3.00;;
5900;SDS011;2976;49.764;9.796;2024-02-26T02:02:36;3.27;;;2.97;;
5900;SDS011;2976;49.764;9.796;2024-02-26T02:05:03;5.53;;;3.50;;
5900;SDS011;2976;49.764;9.796;2024-02-26T02:07:30;4.17;;;2.60;;
5900;SDS011;2976;49.764;9.796;2024-02-26T02:09:56;5.23;;;3.50;;
5900;SDS011;2976;49.764;9.796;2024-02-26T02:12:22;4.43;;;3.30;;
5900;SDS011;2976;49.764;9.796;2024-02-26T02:14:48;6.13;;;3.90;;
5900;SDS011;2976;49.764;9.796;2024-02-26T02:17:13;3.83;;;2.90;;
5900;SDS011;2976;49.764;9.796;2024-02-26T02:19:39;4.30;;;2.93;;
5900;SDS011;2976;49.764;9.796;2024-02-26T02:22:05;5.37;;;3.40;;
5900;SDS011;2976;49.764;9.796;2024-02-26T02:24:30;5.00;;;3.03;;
5900;SDS011;2976;49.764;9.796;2024-02-26T02:26:56;3.47;;;2.80;;
5900;SDS011;2976;49.764;9.796;2024-02-26T02:29:21;7.17;;;3.83;;
5900;SDS011;2976;49.764;9.796;2024-02-26T02:31:47;6.20;;;3.00;;
5900;SDS011;2976;49.764;9.796;2024-02-26T02:34:13;4.63;;;3.47;;
5900;SDS011;2976;49.764;9.796;2024-02-26T02:36:49;4.37;;;3.43;;
5900;SDS011;2976;49.764;9.796;2024-02-26T02:39:19;5.47;;;3.47;;
5900;SDS011;2976;49.764;9.796;2024-02-26T02:41:44;4.50;;;3.03;;
5900;SDS011;2976;49.764;9.796;2024-02-26T02:44:10;4.27;;;3.33;;
5900;SDS011;2976;49.764;9.796;2024-02-26T02:46:35;8.80;;;3.77;;
5900;SDS011;2976;49.764;9.796;2024-02-26T02:49:01;5.27;;;3.10;;
5900;SDS011;2976;49.764;9.796;2024-02-26T02:51:27;3.67;;;2.57;;
5900;SDS011;2976;49.764;9.796;2024-02-26T02:53:52;3.80;;;2.63;;
5900;SDS011;2976;49.764;9.796;2024-02-26T02:56:18;5.27;;;3.10;;
5900;SDS011;2976;49.764;9.796;2024-02-26T02:58:44;4.63;;;2.80;;
5900;SDS011;2976;49.764;9.796;2024-02-26T03:01:09;3.27;;;2.80;;
5900;SDS011;2976;49.764;9.796;2024-02-26T03:03:35;7.33;;;2.80;;
5900;SDS011;2976;49.764;9.796;2024-02-26T03:06:02;4.87;;;2.43;;
5900;SDS011;2976;49.764;9.796;2024-02-26T03:08:28;6.10;;;3.37;;
5900;SDS011;2976;49.764;9.796;2024-02-26T03:10:53;3.73;;;2.50;;
5900;SDS011;2976;49.764;9.796;2024-02-26T03:13:19;5.20;;;3.50;;
5900;SDS011;2976;49.764;9.796;2024-02-26T03:15:44;4.40;;;2.80;;
5900;SDS011;2976;49.764;9.796;2024-02-26T03:18:10;4.73;;;2.83;;
5900;SDS011;2976;49.764;9.796;2024-02-26T03:20:36;4.17;;;3.07;;
5900;SDS011;2976;49.764;9.796;2024-02-26T03:23:02;3.20;;;2.60;;
5900;SDS011;2976;49.764;9.796;2024-02-26T03:25:28;4.13;;;3.13;;
5900;SDS011;2976;49.764;9.796;2024-02-26T03:27:53;4.57;;;3.07;;
5900;SDS011;2976;49.764;9.796;2024-02-26T03:30:19;3.57;;;2.77;;
5900;SDS011;2976;49.764;9.796;2024-02-26T03:32:44;6.77;;;3.47;;
5900;SDS011;2976;49.764;9.796;2024-02-26T03:35:10;6.63;;;2.90;;
5900;SDS011;2976;49.764;9.796;2024-02-26T03:37:35;4.20;;;3.07;;
5900;SDS011;2976;49.764;9.796;2024-02-26T03:40:01;6.60;;;3.50;;
5900;SDS011;2976;49.764;9.796;2024-02-26T03:42:28;4.43;;;2.57;;
5900;SDS011;2976;49.764;9.796;2024-02-26T03:44:53;5.87;;;3.30;;
5900;SDS011;2976;49.764;9.796;2024-02-26T03:47:19;5.70;;;3.17;;
5900;SDS011;2976;49.764;9.796;2024-02-26T03:49:44;4.70;;;3.10;;
5900;SDS011;2976;49.764;9.796;2024-02-26T03:52:10;6.07;;;2.70;;
5900;SDS011;2976;49.764;9.796;2024-02-26T03:54:35;6.40;;;3.10;;
5900;SDS011;2976;49.764;9.796;2024-02-26T03:57:01;6.40;;;3.10;;
5900;SDS011;2976;49.764;9.796;2024-02-26T03:59:26;10.13;;;3.60;;
5900;SDS011;2976;49.764;9.796;2024-02-26T04:01:52;6.20;;;3.07;;
5900;SDS011;2976;49.764;9.796;2024-02-26T04:04:18;4.40;;;3.03;;
5900;SDS011;2976;49.764;9.796;2024-02-26T04:06:46;5.00;;;2.87;;
5900;SDS011;2976;49.764;9.796;2024-02-26T04:09:15;6.97;;;3.07;;
5900;SDS011;2976;49.764;9.796;2024-02-26T04:11:40;3.90;;;2.70;;
5900;SDS011;2976;49.764;9.796;2024-02-26T04:14:08;5.33;;;3.30;;
5900;SDS011;2976;49.764;9.796;2024-02-26T04:16:34;6.40;;;2.80;;
5900;SDS011;2976;49.764;9.796;2024-02-26T04:19:02;4.50;;;3.40;;
5900;SDS011;2976;49.764;9.796;2024-02-26T04:21:28;4.67;;;3.20;;
5900;SDS011;2976;49.764;9.796;2024-02-26T04:23:53;6.90;;;3.53;;
5900;SDS011;2976;49.764;9.796;2024-02-26T04:26:25;4.33;;;2.73;;
5900;SDS011;2976;49.764;9.796;2024-02-26T04:28:51;5.43;;;3.37;;
5900;SDS011;2976;49.764;9.796;2024-02-26T04:31:17;3.10;;;2.80;;
5900;SDS011;2976;49.764;9.796;2024-02-26T04:33:43;4.13;;;3.40;;
5900;SDS011;2976;49.764;9.796;2024-02-26T04:36:15;3.77;;;2.40;;
5900;SDS011;2976;49.764;9.796;2024-02-26T04:38:44;5.30;;;3.37;;
5900;SDS011;2976;49.764;9.796;2024-02-26T04:41:09;7.43;;;3.00;;
5900;SDS011;2976;49.764;9.796;2024-02-26T04:43:35;7.87;;;3.50;;
5900;SDS011;2976;49.764;9.796;2024-02-26T04:46:06;5.93;;;3.20;;
5900;SDS011;2976;49.764;9.796;2024-02-26T04:48:33;4.23;;;3.30;;
5900;SDS011;2976;49.764;9.796;2024-02-26T04:50:59;3.70;;;2.80;;
5900;SDS011;2976;49.764;9.796;2024-02-26T04:53:24;7.30;;;3.70;;
5900;SDS011;2976;49.764;9.796;2024-02-26T04:55:50;7.20;;;3.80;;
5900;SDS011;2976;49.764;9.796;2024-02-26T04:58:16;6.03;;;3.97;;
5900;SDS011;2976;49.764;9.796;2024-02-26T05:00:42;7.63;;;4.43;;
5900;SDS011;2976;49.764;9.796;2024-02-26T05:03:07;4.97;;;3.60;;
5900;SDS011;2976;49.764;9.796;2024-02-26T05:05:37;5.60;;;3.80;;
5900;SDS011;2976;49.764;9.796;2024-02-26T05:08:03;4.70;;;3.23;;
5900;SDS011;2976;49.764;9.796;2024-02-26T05:10:29;6.97;;;3.87;;
5900;SDS011;2976;49.764;9.796;2024-02-26T05:12:55;7.70;;;3.83;;
5900;SDS011;2976;49.764;9.796;2024-02-26T05:15:20;5.27;;;4.20;;
5900;SDS011;2976;49.764;9.796;2024-02-26T05:17:46;11.90;;;4.13;;
5900;SDS011;2976;49.764;9.796;2024-02-26T05:20:11;8.47;;;3.97;;
5900;SDS011;2976;49.764;9.796;2024-02-26T05:22:37;9.33;;;4.87;;
5900;SDS011;2976;49.764;9.796;2024-02-26T05:25:03;7.20;;;3.93;;
5900;SDS011;2976;49.764;9.796;2024-02-26T05:27:29;7.83;;;4.07;;
5900;SDS011;2976;49.764;9.796;2024-02-26T05:29:54;7.97;;;4.40;;
5900;SDS011;2976;49.764;9.796;2024-02-26T05:32:20;6.20;;;3.80;;
5900;SDS011;2976;49.764;9.796;2024-02-26T05:34:45;6.87;;;4.77;;
5900;SDS011;2976;49.764;9.796;2024-02-26T05:37:11;5.63;;;4.07;;
5900;SDS011;2976;49.764;9.796;2024-02-26T05:39:36;9.60;;;5.07;;
5900;SDS011;2976;49.764;9.796;2024-02-26T05:42:02;10.20;;;5.27;;
5900;SDS011;2976;49.764;9.796;2024-02-26T05:44:28;13.00;;;5.00;;
5900;SDS011;2976;49.764;9.796;2024-02-26T05:46:54;11.20;;;5.70;;
5900;SDS011;2976;49.764;9.796;2024-02-26T05:49:19;16.17;;;6.70;;
5900;SDS011;2976;49.764;9.796;2024-02-26T05:51:45;17.97;;;7.77;;
5900;SDS011;2976;49.764;9.796;2024-02-26T05:54:11;17.97;;;7.47;;
5900;SDS011;2976;49.764;9.796;2024-02-26T05:56:36;13.37;;;7.23;;
5900;SDS011;2976;49.764;9.796;2024-02-26T05:59:02;16.50;;;7.53;;
5900;SDS011;2976;49.764;9.796;2024-02-26T06:01:27;13.40;;;7.37;;
5900;SDS011;2976;49.764;9.796;2024-02-26T06:03:53;15.07;;;6.40;;
5900;SDS011;2976;49.764;9.796;2024-02-26T06:06:19;12.50;;;6.60;;
5900;SDS011;2976;49.764;9.796;2024-02-26T06:08:44;20.37;;;7.57;;
5900;SDS011;2976;49.764;9.796;2024-02-26T06:11:10;13.83;;;8.47;;
5900;SDS011;2976;49.764;9.796;2024-02-26T06:13:35;19.83;;;9.57;;
5900;SDS011;2976;49.764;9.796;2024-02-26T06:16:01;17.63;;;7.67;;
5900;SDS011;2976;49.764;9.796;2024-02-26T06:18:27;8.50;;;5.60;;
5900;SDS011;2976;49.764;9.796;2024-02-26T06:20:52;6.50;;;4.30;;
5900;SDS011;2976;49.764;9.796;2024-02-26T06:23:18;11.87;;;5.70;;
5900;SDS011;2976;49.764;9.796;2024-02-26T06:25:44;10.70;;;5.27;;
5900;SDS011;2976;49.764;9.796;2024-02-26T06:28:09;8.67;;;4.43;;
5900;SDS011;2976;49.764;9.796;2024-02-26T06:30:35;5.03;;;4.23;;
5900;SDS011;2976;49.764;9.796;2024-02-26T06:33:01;10.33;;;4.60;;
5900;SDS011;2976;49.764;9.796;2024-02-26T06:35:26;9.60;;;5.20;;
5900;SDS011;2976;49.764;9.796;2024-02-26T06:37:52;8.37;;;4.30;;
5900;SDS011;2976;49.764;9.796;2024-02-26T06:40:18;5.97;;;4.23;;
5900;SDS011;2976;49.764;9.796;2024-02-26T06:42:44;9.30;;;5.03;;
5900;SDS011;2976;49.764;9.796;2024-02-26T06:45:10;11.17;;;4.90;;
5900;SDS011;2976;49.764;9.796;2024-02-26T06:47:36;6.03;;;4.20;;
5900;SDS011;2976;49.764;9.796;2024-02-26T06:50:01;11.83;;;3.60;;
5900;SDS011;2976;49.764;9.796;2024-02-26T06:52:27;8.07;;;4.80;;
5900;SDS011;2976;49.764;9.796;2024-02-26T06:54:52;9.17;;;5.60;;
5900;SDS011;2976;49.764;9.796;2024-02-26T06:57:21;12.80;;;5.67;;
5900;SDS011;2976;49.764;9.796;2024-02-26T06:59:47;9.90;;;4.90;;
5900;SDS011;2976;49.764;9.796;2024-02-26T07:02:16;7.33;;;4.53;;
5900;SDS011;2976;49.764;9.796;2024-02-26T07:04:42;10.20;;;5.27;;
5900;SDS011;2976;49.764;9.796;2024-02-26T07:07:08;9.67;;;6.27;;
5900;SDS011;2976;49.764;9.796;2024-02-26T07:09:33;15.83;;;5.70;;
5900;SDS011;2976;49.764;9.796;2024-02-26T07:11:59;13.23;;;5.53;;
5900;SDS011;2976;49.764;9.796;2024-02-26T07:14:25;8.83;;;5.80;;
5900;SDS011;2976;49.764;9.796;2024-02-26T07:16:50;14.73;;;6.67;;
5900;SDS011;2976;49.764;9.796;2024-02-26T07:19:16;14.60;;;5.80;;
5900;SDS011;2976;49.764;9.796;2024-02-26T07:21:42;12.63;;;5.67;;
5900;SDS011;2976;49.764;9.796;2024-02-26T07:24:08;17.20;;;6.53;;
5900;SDS011;2976;49.764;9.796;2024-02-26T07:26:33;10.83;;;6.83;;
5900;SDS011;2976;49.764;9.796;2024-02-26T07:28:59;13.50;;;7.83;;
5900;SDS011;2976;49.764;9.796;2024-02-26T07:31:25;18.70;;;9.30;;
5900;SDS011;2976;49.764;9.796;2024-02-26T07:33:51;18.43;;;10.10;;
5900;SDS011;2976;49.764;9.796;2024-02-26T07:36:16;17.83;;;7.90;;
5900;SDS011;2976;49.764;9.796;2024-02-26T07:38:42;10.07;;;5.70;;
5900;SDS011;2976;49.764;9.796;2024-02-26T07:41:08;16.30;;;8.67;;
5900;SDS011;2976;49.764;9.796;2024-02-26T07:43:34;17.87;;;7.80;;
5900;SDS011;2976;49.764;9.796;2024-02-26T07:45:59;18.10;;;9.60;;
5900;SDS011;2976;49.764;9.796;2024-02-26T07:48:25;14.13;;;6.87;;
5900;SDS011;2976;49.764;9.796;2024-02-26T07:50:51;17.60;;;6.80;;
5900;SDS011;2976;49.764;9.796;2024-02-26T07:53:16;15.70;;;8.73;;
5900;SDS011;2976;49.764;9.796;2024-02-26T07:55:42;17.43;;;7.93;;
5900;SDS011;2976;49.764;9.796;2024-02-26T07:58:07;16.87;;;8.17;;
5900;SDS011;2976;49.764;9.796;2024-02-26T08:00:33;16.90;;;7.80;;
5900;SDS011;2976;49.764;9.796;2024-02-26T08:02:59;14.97;;;7.20;;
5900;SDS011;2976;49.764;9.796;2024-02-26T08:05:24;21.13;;;8.40;;
5900;SDS011;2976;49.764;9.796;2024-02-26T08:07:50;19.00;;;8.10;;
5900;SDS011;2976;49.764;9.796;2024-02-26T08:10:16;19.10;;;7.17;;
5900;SDS011;2976;49.764;9.796;2024-02-26T08:12:41;17.70;;;7.70;;
5900;SDS011;2976;49.764;9.796;2024-02-26T08:15:07;23.77;;;9.03;;
5900;SDS011;2976;49.764;9.796;2024-02-26T08:17:33;12.83;;;7.20;;
5900;SDS011;2976;49.764;9.796;2024-02-26T08:19:59;15.97;;;8.03;;
5900;SDS011;2976;49.764;9.796;2024-02-26T08:22:25;18.63;;;7.77;;
5900;SDS011;2976;49.764;9.796;2024-02-26T08:24:51;15.13;;;7.60;;
5900;SDS011;2976;49.764;9.796;2024-02-26T08:27:17;18.90;;;7.10;;
5900;SDS011;2976;49.764;9.796;2024-02-26T08:29:42;18.80;;;7.63;;
5900;SDS011;2976;49.764;9.796;2024-02-26T08:32:08;15.77;;;7.53;;
5900;SDS011;2976;49.764;9.796;2024-02-26T08:34:33;15.57;;;7.73;;
5900;SDS011;2976;49.764;9.796;2024-02-26T08:36:59;13.47;;;7.70;;
5900;SDS011;2976;49.764;9.796;2024-02-26T08:39:25;21.43;;;8.57;;
5900;SDS011;2976;49.764;9.796;2024-02-26T08:41:51;16.20;;;8.20;;
5900;SDS011;2976;49.764;9.796;2024-02-26T08:44:16;20.40;;;8.30;;
5900;SDS011;2976;49.764;9.796;2024-02-26T08:46:42;24.27;;;9.90;;
5900;SDS011;2976;49.764;9.796;2024-02-26T08:49:07;14.60;;;7.73;;
5900;SDS011;2976;49.764;9.796;2024-02-26T08:51:33;17.83;;;8.13;;
5900;SDS011;2976;49.764;9.796;2024-02-26T08:53:59;12.53;;;6.90;;
5900;SDS011;2976;49.764;9.796;2024-02-26T08:56:24;17.10;;;7.87;;
5900;SDS011;2976;49.764;9.796;2024-02-26T08:58:50;14.00;;;7.40;;
5900;SDS011;2976;49.764;9.796;2024-02-26T09:01:18;13.83;;;6.20;;
5900;SDS011;2976;49.764;9.796;2024-02-26T09:03:44;16.37;;;7.47;;
5900;SDS011;2976;49.764;9.796;2024-02-26T09:06:10;13.60;;;7.50;;
5900;SDS011;2976;49.764;9.796;2024-02-26T09:08:37;14.87;;;8.33;;
5900;SDS011;2976;49.764;9.796;2024-02-26T09:11:02;19.30;;;9.27;;
5900;SDS011;2976;49.764;9.796;2024-02-26T09:13:28;14.30;;;7.13;;
5900;SDS011;2976;49.764;9.796;2024-02-26T09:15:54;17.87;;;7.77;;
5900;SDS011;2976;49.764;9.796;2024-02-26T09:18:20;15.10;;;8.33;;
5900;SDS011;2976;49.764;9.796;2024-02-26T09:20:45;17.93;;;9.10;;
5900;SDS011;2976;49.764;9.796;2024-02-26T09:23:11;19.20;;;8.67;;
5900;SDS011;2976;49.764;9.796;2024-02-26T09:25:37;20.17;;;8.27;;
5900;SDS011;2976;49.764;9.796;2024-02-26T09:28:03;14.03;;;7.70;;
5900;SDS011;2976;49.764;9.796;2024-02-26T09:30:29;15.43;;;6.93;;
5900;SDS011;2976;49.764;9.796;2024-02-26T09:32:54;17.70;;;8.20;;
5900;SDS011;2976;49.764;9.796;2024-02-26T09:35:20;16.50;;;8.00;;
5900;SDS011;2976;49.764;9.796;2024-02-26T09:37:46;17.13;;;7.60;;
5900;SDS011;2976;49.764;9.796;2024-02-26T09:40:14;16.73;;;8.27;;
5900;SDS011;2976;49.764;9.796;2024-02-26T09:42:42;16.70;;;8.67;;
5900;SDS011;2976;49.764;9.796;2024-02-26T09:45:17;16.03;;;8.03;;
5900;SDS011;2976;49.764;9.796;2024-02-26T09:47:43;14.27;;;8.80;;
5900;SDS011;2976;49.764;9.796;2024-02-26T09:50:10;15.33;;;8.20;;
5900;SDS011;2976;49.764;9.796;2024-02-26T09:52:38;16.20;;;8.27;;
5900;SDS011;2976;49.764;9.796;2024-02-26T09:55:06;14.90;;;7.33;;
5900;SDS011;2976;49.764;9.796;2024-02-26T09:57:34;13.70;;;7.67;;
5900;SDS011;2976;49.764;9.796;2024-02-26T10:00:02;14.20;;;7.30;;
5900;SDS011;2976;49.764;9.796;2024-02-26T10:02:30;14.77;;;8.83;;
5900;SDS011;2976;49.764;9.796;2024-02-26T10:04:57;15.80;;;8.00;;
5900;SDS011;2976;49.764;9.796;2024-02-26T10:07:26;13.03;;;7.53;;
5900;SDS011;2976;49.764;9.796;2024-02-26T10:09:55;15.93;;;6.93;;
5900;SDS011;2976;49.764;9.796;2024-02-26T10:12:21;17.30;;;8.47;;
5900;SDS011;2976;49.764;9.796;2024-02-26T10:14:47;15.60;;;7.17;;
5900;SDS011;2976;49.764;9.796;2024-02-26T10:17:12;12.37;;;7.23;;
5900;SDS011;2976;49.764;9.796;2024-02-26T10:19:38;19.37;;;7.53;;
5900;SDS011;2976;49.764;9.796;2024-02-26T10:22:04;15.13;;;6.03;;
5900;SDS011;2976;49.764;9.796;2024-02-26T10:24:30;12.37;;;6.63;;
5900;SDS011;2976;49.764;9.796;2024-02-26T10:26:56;11.90;;;7.07;;
5900;SDS011;2976;49.764;9.796;2024-02-26T10:29:23;14.93;;;7.03;;
5900;SDS011;2976;49.764;9.796;2024-02-26T10:31:52;11.03;;;6.43;;
5900;SDS011;2976;49.764;9.796;2024-02-26T10:34:18;12.90;;;7.27;;
5900;SDS011;2976;49.764;9.796;2024-02-26T10:36:45;14.53;;;7.40;;
5900;SDS011;2976;49.764;9.796;2024-02-26T10:39:13;10.37;;;6.30;;
5900;SDS011;2976;49.764;9.796;2024-02-26T10:41:40;14.73;;;5.40;;
5900;SDS011;2976;49.764;9.796;2024-02-26T10:44:08;8.57;;;5.57;;
5900;SDS011;2976;49.764;9.796;2024-02-26T10:46:36;9.77;;;5.07;;
5900;SDS011;2976;49.764;9.796;2024-02-26T10:49:02;11.77;;;6.07;;
5900;SDS011;2976;49.764;9.796;2024-02-26T10:51:30;9.70;;;6.10;;
5900;SDS011;2976;49.764;9.796;2024-02-26T10:53:57;10.40;;;6.30;;
5900;SDS011;2976;49.764;9.796;2024-02-26T10:56:27;11.83;;;5.73;;
5900;SDS011;2976;49.764;9.796;2024-02-26T10:58:57;10.17;;;5.60;;
5900;SDS011;2976;49.764;9.796;2024-02-26T11:01:24;11.43;;;5.80;;
5900;SDS011;2976;49.764;9.796;2024-02-26T11:03:50;10.77;;;6.03;;
5900;SDS011;2976;49.764;9.796;2024-02-26T11:06:17;9.83;;;5.03;;
5900;SDS011;2976;49.764;9.796;2024-02-26T11:08:49;7.90;;;5.50;;
5900;SDS011;2976;49.764;9.796;2024-02-26T11:11:16;10.30;;;5.27;;
5900;SDS011;2976;49.764;9.796;2024-02-26T11:13:46;8.80;;;5.40;;
5900;SDS011;2976;49.764;9.796;2024-02-26T11:16:22;6.13;;;5.00;;
5900;SDS011;2976;49.764;9.796;2024-02-26T11:18:48;7.80;;;5.17;;
5900;SDS011;2976;49.764;9.796;2024-02-26T11:21:18;8.57;;;4.60;;
5900;SDS011;2976;49.764;9.796;2024-02-26T11:23:47;7.67;;;5.00;;
5900;SDS011;2976;49.764;9.796;2024-02-26T11:26:14;18.20;;;6.43;;
5900;SDS011;2976;49.764;9.796;2024-02-26T11:28:41;5.40;;;4.20;;
5900;SDS011;2976;49.764;9.796;2024-02-26T11:31:09;8.60;;;4.70;;
5900;SDS011;2976;49.764;9.796;2024-02-26T11:33:35;9.97;;;5.37;;
5900;SDS011;2976;49.764;9.796;2024-02-26T11:36:10;8.10;;;4.40;;
5900;SDS011;2976;49.764;9.796;2024-02-26T11:38:37;8.27;;;4.03;;
5900;SDS011;2976;49.764;9.796;2024-02-26T11:41:04;12.43;;;4.70;;
5900;SDS011;2976;49.764;9.796;2024-02-26T11:49:29;7.00;;;3.70;;
5900;SDS011;2976;49.764;9.796;2024-02-26T11:51:56;7.87;;;4.13;;
5900;SDS011;2976;49.764;9.796;2024-02-26T11:54:43;6.80;;;4.00;;
5900;SDS011;2976;49.764;9.796;2024-02-26T11:59:54;7.70;;;4.07;;
5900;SDS011;2976;49.764;9.796;2024-02-26T12:02:39;8.37;;;4.17;;
5900;SDS011;2976;49.764;9.796;2024-02-26T12:05:18;8.37;;;4.57;;
5900;SDS011;2976;49.764;9.796;2024-02-26T12:07:49;6.50;;;4.03;;
5900;SDS011;2976;49.764;9.796;2024-02-26T12:10:25;8.27;;;4.60;;
5900;SDS011;2976;49.764;9.796;2024-02-26T12:15:39;6.27;;;3.60;;
5900;SDS011;2976;49.764;9.796;2024-02-26T12:18:06;4.53;;;3.30;;
5900;SDS011;2976;49.764;9.796;2024-02-26T12:20:33;5.47;;;3.77;;
5900;SDS011;2976;49.764;9.796;2024-02-26T12:23:00;5.93;;;4.03;;
5900;SDS011;2976;49.764;9.796;2024-02-26T12:25:28;6.10;;;4.33;;
5900;SDS011;2976;49.764;9.796;2024-02-26T12:27:54;5.40;;;3.73;;
5900;SDS011;2976;49.764;9.796;2024-02-26T12:30:20;4.27;;;2.80;;
5900;SDS011;2976;49.764;9.796;2024-02-26T12:32:47;5.13;;;3.20;;
5900;SDS011;2976;49.764;9.796;2024-02-26T12:35:14;5.23;;;3.20;;
5900;SDS011;2976;49.764;9.796;2024-02-26T12:37:41;7.20;;;4.67;;
5900;SDS011;2976;49.764;9.796;2024-02-26T12:40:07;4.77;;;3.50;;
5900;SDS011;2976;49.764;9.796;2024-02-26T12:42:34;6.60;;;3.50;;
5900;SDS011;2976;49.764;9.796;2024-02-26T12:45:07;4.70;;;3.60;;
5900;SDS011;2976;49.764;9.796;2024-02-26T12:47:39;9.73;;;4.00;;
5900;SDS011;2976;49.764;9.796;2024-02-26T12:50:06;12.20;;;5.07;;
5900;SDS011;2976;49.764;9.796;2024-02-26T12:52:34;7.03;;;3.30;;
5900;SDS011;2976;49.764;9.796;2024-02-26T12:55:01;6.43;;;4.27;;
5900;SDS011;2976;49.764;9.796;2024-02-26T12:57:31;6.90;;;3.77;;
5900;SDS011;2976;49.764;9.796;2024-02-26T12:59:58;6.57;;;2.73;;
5900;SDS011;2976;49.764;9.796;2024-02-26T13:02:25;4.83;;;3.50;;
5900;SDS011;2976;49.764;9.796;2024-02-26T13:04:52;5.93;;;4.47;;
5900;SDS011;2976;49.764;9.796;2024-02-26T13:07:19;3.93;;;3.10;;
5900;SDS011;2976;49.764;9.796;2024-02-26T13:09:46;4.00;;;3.60;;
5900;SDS011;2976;49.764;9.796;2024-02-26T13:12:11;4.83;;;3.30;;
5900;SDS011;2976;49.764;9.796;2024-02-26T13:14:38;3.13;;;2.60;;
5900;SDS011;2976;49.764;9.796;2024-02-26T13:17:04;7.60;;;2.97;;
5900;SDS011;2976;49.764;9.796;2024-02-26T13:19:30;5.60;;;2.60;;
5900;SDS011;2976;49.764;9.796;2024-02-26T13:21:55;7.63;;;2.97;;
5900;SDS011;2976;49.764;9.796;2024-02-26T13:24:28;2.77;;;2.20;;
5900;SDS011;2976;49.764;9.796;2024-02-26T13:26:56;5.50;;;2.90;;
5900;SDS011;2976;49.764;9.796;2024-02-26T13:29:21;2.70;;;2.50;;
5900;SDS011;2976;49.764;9.796;2024-02-26T13:31:47;4.40;;;3.03;;
5900;SDS011;2976;49.764;9.796;2024-02-26T13:34:25;5.20;;;2.70;;
5900;SDS011;2976;49.764;9.796;2024-02-26T13:36:52;3.30;;;2.23;;
5900;SDS011;2976;49.764;9.796;2024-02-26T13:39:22;3.40;;;3.17;;
5900;SDS011;2976;49.764;9.796;2024-02-26T13:41:49;4.13;;;2.70;;
5900;SDS011;2976;49.764;9.796;2024-02-26T13:44:14;4.27;;;2.90;;
5900;SDS011;2976;49.764;9.796;2024-02-26T13:46:40;2.63;;;2.37;;
5900;SDS011;2976;49.764;9.796;2024-02-26T13:49:07;3.30;;;2.27;;
5900;SDS011;2976;49.764;9.796;2024-02-26T13:51:34;6.00;;;2.57;;
5900;SDS011;2976;49.764;9.796;2024-02-26T13:54:00;1.80;;;1.60;;
5900;SDS011;2976;49.764;9.796;2024-02-26T13:56:26;4.73;;;1.90;;
5900;SDS011;2976;49.764;9.796;2024-02-26T13:58:52;3.20;;;2.50;;
5900;SDS011;2976;49.764;9.796;2024-02-26T14:01:17;2.60;;;2.07;;
5900;SDS011;2976;49.764;9.796;2024-02-26T14:03:43;2.30;;;1.87;;
5900;SDS011;2976;49.764;9.796;2024-02-26T14:06:09;3.10;;;2.10;;
5900;SDS011;2976;49.764;9.796;2024-02-26T14:08:34;2.27;;;1.97;;
5900;SDS011;2976;49.764;9.796;2024-02-26T14:11:00;3.07;;;2.00;;
5900;SDS011;2976;49.764;9.796;2024-02-26T14:13:25;4.40;;;2.13;;
5900;SDS011;2976;49.764;9.796;2024-02-26T14:15:51;4.20;;;2.60;;
5900;SDS011;2976;49.764;9.796;2024-02-26T14:18:17;4.13;;;2.90;;
5900;SDS011;2976;49.764;9.796;2024-02-26T14:20:42;2.27;;;2.07;;
5900;SDS011;2976;49.764;9.796;2024-02-26T14:23:09;2.30;;;2.10;;
5900;SDS011;2976;49.764;9.796;2024-02-26T14:25:35;2.70;;;2.47;;
5900;SDS011;2976;49.764;9.796;2024-02-26T14:28:01;5.30;;;2.90;;
5900;SDS011;2976;49.764;9.796;2024-02-26T14:30:28;10.73;;;3.07;;
5900;SDS011;2976;49.764;9.796;2024-02-26T14:32:54;2.50;;;2.30;;
5900;SDS011;2976;49.764;9.796;2024-02-26T14:35:20;5.37;;;2.43;;
5900;SDS011;2976;49.764;9.796;2024-02-26T14:37:46;3.40;;;2.63;;
5900;SDS011;2976;49.764;9.796;2024-02-26T14:40:12;2.70;;;2.37;;
5900;SDS011;2976;49.764;9.796;2024-02-26T14:42:39;5.23;;;2.50;;
5900;SDS011;2976;49.764;9.796;2024-02-26T14:45:05;2.97;;;2.67;;
5900;SDS011;2976;49.764;9.796;2024-02-26T14:47:34;2.40;;;2.20;;
5900;SDS011;2976;49.764;9.796;2024-02-26T14:49:59;4.20;;;2.43;;
5900;SDS011;2976;49.764;9.796;2024-02-26T14:52:25;2.60;;;1.93;;
5900;SDS011;2976;49.764;9.796;2024-02-26T14:54:51;11.17;;;2.70;;
5900;SDS011;2976;49.764;9.796;2024-02-26T14:57:16;8.30;;;3.67;;
5900;SDS011;2976;49.764;9.796;2024-02-26T14:59:42;3.07;;;2.40;;
5900;SDS011;2976;49.764;9.796;2024-02-26T15:02:09;3.20;;;2.30;;
5900;SDS011;2976;49.764;9.796;2024-02-26T15:04:34;3.73;;;1.67;;
5900;SDS011;2976;49.764;9.796;2024-02-26T15:07:01;3.23;;;1.97;;
5900;SDS011;2976;49.764;9.796;2024-02-26T15:09:26;7.03;;;2.33;;
5900;SDS011;2976;49.764;9.796;2024-02-26T15:11:52;3.23;;;2.00;;
5900;SDS011;2976;49.764;9.796;2024-02-26T15:14:17;3.77;;;2.40;;
5900;SDS011;2976;49.764;9.796;2024-02-26T15:16:43;2.50;;;2.30;;